Weather History for Copper Mountain, CO

Change the Weather History Date:

Tuesday, May 8, 2012

  Actual Average (KLXV) Record (KLXV)
Temperature  
Mean Temperature 35 °F -  
Max Temperature 44 °F 51 °F 64 °F (1989)
Min Temperature 26 °F 25 °F 11 °F (1984)
Degree Days  
Heating Degree Days 30 27  
Month to date heating degree days 223  
Since 1 July heating degree days 10224  
Cooling Degree Days 0 0  
Month to date cooling degree days 0  
Year to date cooling degree days 0  
Moisture  
Dew Point 17 °F    
Average Humidity 51    
Maximum Humidity 80    
Minimum Humidity 19    
Precipitation  
Precipitation 0.04 in 0.03 in 0.64 in (2013)
Month to date precipitation 0.25  
Year to date precipitation 3.58  
Sea Level Pressure  
Sea Level Pressure 30.36 in    
Wind  
Wind Speed 7 mph (West)    
Max Wind Speed 26 mph    
Max Gust Speed 37 mph    
Visibility 10 miles    
Events Thunderstorm    
T = Trace of Precipitation, MM = Missing Value Source: NWS Daily Summary

Daily Weather History Graph

Daily Weather History Graph

Search for Another Location

Airport:

Trip Planner

Search our weather history database for the weather conditions in past years. The results will help you decide how hot, cold, wet, or windy it might be!

Date:

Astronomy

May. 08, 2012 Rise Set
Actual Time 5:57 AM MDT 8:05 PM MDT
Civil Twilight 5:27 AM MDT 8:35 PM MDT
Nautical Twilight 4:50 AM MDT 9:12 PM MDT
Astronomical Twilight 4:11 AM MDT 9:51 PM MDT
Moon 11:18 PM MDT (5/8) 8:08 AM MDT (5/8)
Length of Visible Light 15h 08m
Length of Day
14h 08m
Waning Gibbous, 90% of the Moon is Illuminated
May 8
Waning Gibbous
May 12
Last Quarter
May 20
New
May 28
First Quarter
Jun 4
Full

Hourly Weather History & Observations

Time (MDT) Temp. Windchill Dew Point Humidity Pressure Visibility Wind Dir Wind Speed Gust Speed Precip Events Conditions
12:15 AM 28.4 °F 22.2 °F 23.0 °F 80% 30.33 in 10.0 mi NW 5.8 mph - N/A   Scattered Clouds
12:35 AM 28.4 °F 23.3 °F 23.0 °F 80% 30.33 in 10.0 mi WNW 4.6 mph - N/A   Clear
12:55 AM 28.4 °F 23.3 °F 23.0 °F 80% 30.34 in 10.0 mi WNW 4.6 mph - N/A   Scattered Clouds
1:15 AM 28.4 °F 22.2 °F 23.0 °F 80% 30.34 in 10.0 mi West 5.8 mph - N/A   Mostly Cloudy
1:35 AM 30.2 °F 25.4 °F 23.0 °F 75% 30.35 in 10.0 mi West 4.6 mph - N/A   Overcast
1:55 AM 30.2 °F 24.3 °F 23.0 °F 75% 30.34 in 10.0 mi West 5.8 mph - N/A   Overcast
2:15 AM 30.2 °F 24.3 °F 23.0 °F 75% 30.35 in 10.0 mi West 5.8 mph - N/A   Overcast
2:35 AM 30.2 °F 25.4 °F 23.0 °F 75% 30.34 in 10.0 mi West 4.6 mph - N/A   Overcast
2:55 AM 28.4 °F 23.3 °F 23.0 °F 80% 30.34 in 10.0 mi WNW 4.6 mph - N/A   Scattered Clouds
3:15 AM 28.4 °F 23.3 °F 23.0 °F 80% 30.34 in 10.0 mi WNW 4.6 mph - N/A   Clear
3:35 AM 28.4 °F 22.2 °F 21.2 °F 74% 30.33 in 10.0 mi West 5.8 mph - N/A   Clear
3:55 AM 28.4 °F 22.2 °F 21.2 °F 74% 30.33 in 10.0 mi West 5.8 mph - N/A   Clear
4:15 AM 28.4 °F 21.2 °F 21.2 °F 74% 30.33 in 10.0 mi South 6.9 mph - N/A   Clear
4:35 AM 28.4 °F 22.2 °F 21.2 °F 74% 30.33 in 10.0 mi South 5.8 mph - N/A   Clear
4:55 AM 26.6 °F 19.1 °F 19.4 °F 74% 30.33 in 10.0 mi South 6.9 mph - N/A   Clear
5:15 AM 28.4 °F 21.2 °F 21.2 °F 74% 30.33 in 10.0 mi South 6.9 mph - N/A   Clear
5:35 AM 28.4 °F 21.2 °F 21.2 °F 74% 30.33 in 10.0 mi South 6.9 mph - N/A   Clear
5:55 AM 28.4 °F 24.6 °F 21.2 °F 74% 30.33 in 10.0 mi NW 3.5 mph - N/A   Clear
6:15 AM 28.4 °F 23.3 °F 21.2 °F 74% 30.33 in 10.0 mi SSW 4.6 mph - N/A   Clear
6:35 AM 28.4 °F 21.2 °F 21.2 °F 74% 30.33 in 10.0 mi South 6.9 mph - N/A   Clear
6:55 AM 28.4 °F 21.2 °F 21.2 °F 74% 30.34 in 10.0 mi South 6.9 mph - N/A   Clear
7:15 AM 30.2 °F 26.7 °F 17.6 °F 60% 30.34 in 10.0 mi WNW 3.5 mph - N/A   Clear
7:35 AM 32.0 °F 27.5 °F 23.0 °F 69% 30.34 in 10.0 mi SSW 4.6 mph - N/A   Clear
7:55 AM 32.0 °F 27.5 °F 23.0 °F 69% 30.34 in 10.0 mi West 4.6 mph - N/A   Clear
8:15 AM 33.8 °F 29.6 °F 21.2 °F 60% 30.35 in 10.0 mi South 4.6 mph - N/A   Clear
8:35 AM 33.8 °F 29.6 °F 19.4 °F 56% 30.36 in 10.0 mi SSW 4.6 mph - N/A   Clear
8:55 AM 33.8 °F 28.6 °F 19.4 °F 56% 30.36 in 10.0 mi West 5.8 mph - N/A   Clear
9:15 AM 33.8 °F 29.6 °F 19.4 °F 56% 30.36 in 10.0 mi WNW 4.6 mph - 0.03 in   Clear
9:55 AM 35.6 °F 30.7 °F 15.8 °F 44% 30.36 in 10.0 mi West 5.8 mph - 0.04 in   Clear
10:15 AM 33.8 °F 27.0 °F 14.0 °F 44% 30.36 in 10.0 mi West 8.1 mph - N/A   Clear
10:35 AM 35.6 °F 31.7 °F 12.2 °F 38% 30.37 in 10.0 mi West 4.6 mph - N/A   Clear
10:55 AM 37.4 °F 32.8 °F 14.0 °F 38% 30.37 in 10.0 mi West 5.8 mph - N/A   Clear
11:15 AM 37.4 °F 33.8 °F 8.6 °F 30% 30.38 in 10.0 mi WSW 4.6 mph - N/A   Clear
11:35 AM 37.4 °F 31.4 °F 1.4 °F 22% 30.38 in 10.0 mi West 8.1 mph - N/A   Clear
11:55 AM 41.0 °F 38.0 °F 1.4 °F 19% 30.38 in 10.0 mi WNW 4.6 mph - N/A   Clear
12:15 PM 41.0 °F 37.1 °F 8.6 °F 26% 30.38 in 10.0 mi West 5.8 mph - N/A   Clear
12:55 PM 44.6 °F 39.7 °F 14.0 °F 29% 30.36 in 10.0 mi WNW 9.2 mph - N/A   Clear
1:15 PM 42.8 °F 39.3 °F 8.6 °F 25% 30.36 in 10.0 mi NW 5.8 mph 18.4 mph N/A   Clear
1:35 PM 44.6 °F 41.4 °F 12.2 °F 27% 30.36 in 10.0 mi WNW 5.8 mph 16.1 mph N/A   Clear
1:55 PM 44.6 °F 42.2 °F 8.6 °F 23% 30.36 in 10.0 mi WNW 4.6 mph 17.3 mph N/A Thunderstorm Scattered Clouds
2:15 PM 41.0 °F 35.8 °F 5.0 °F 23% 30.36 in 10.0 mi West 8.1 mph 16.1 mph N/A   Mostly Cloudy
2:35 PM 41.0 °F 32.8 °F 12.2 °F 31% 30.36 in 10.0 mi West 16.1 mph 21.9 mph N/A   Overcast
2:55 PM 42.8 °F 35.1 °F 14.0 °F 31% 30.36 in 10.0 mi West 16.1 mph 23.0 mph N/A   Overcast
3:15 PM 41.0 °F 31.9 °F 17.6 °F 39% 30.36 in 10.0 mi West 19.6 mph 25.3 mph N/A   Overcast
3:35 PM 39.2 °F 32.0 °F 15.8 °F 39% 30.36 in 10.0 mi West 11.5 mph 26.5 mph N/A   Overcast
3:55 PM 42.8 °F 35.4 °F 21.2 °F 42% 30.36 in 10.0 mi West 15.0 mph 25.3 mph N/A   Overcast
4:15 PM 41.0 °F 32.8 °F 15.8 °F 36% 30.36 in 10.0 mi West 16.1 mph 23.0 mph N/A   Overcast
4:35 PM 44.6 °F 38.4 °F 12.2 °F 27% 30.36 in 10.0 mi West 12.7 mph 23.0 mph N/A   Overcast
4:55 PM 42.8 °F 36.6 °F 14.0 °F 31% 30.36 in 10.0 mi West 11.5 mph 18.4 mph N/A   Overcast
5:15 PM 44.6 °F 37.4 °F 12.2 °F 27% 30.36 in 10.0 mi West 16.1 mph 23.0 mph N/A   Overcast
5:35 PM 44.6 °F 35.3 °F 19.4 °F 37% 30.36 in 10.0 mi WNW 26.5 mph 36.8 mph N/A   Mostly Cloudy
5:55 PM 41.0 °F 31.4 °F 17.6 °F 39% 30.36 in 10.0 mi West 21.9 mph 26.5 mph N/A   Scattered Clouds
6:15 PM 42.8 °F 34.0 °F 14.0 °F 31% 30.36 in 10.0 mi West 20.7 mph - N/A   Scattered Clouds
6:35 PM 41.0 °F 31.6 °F 17.6 °F 39% 30.37 in 10.0 mi West 20.7 mph 27.6 mph N/A   Scattered Clouds
6:55 PM 41.0 °F 32.5 °F 14.0 °F 33% 30.37 in 10.0 mi West 17.3 mph - N/A   Scattered Clouds
7:15 PM 41.0 °F 31.9 °F 15.8 °F 36% 30.38 in 10.0 mi West 19.6 mph 23.0 mph N/A   Clear
7:55 PM 41.0 °F 33.5 °F 17.6 °F 39% 30.38 in 10.0 mi West 13.8 mph - N/A   Clear
8:15 PM 37.4 °F 28.9 °F 17.6 °F 45% 30.38 in 10.0 mi West 13.8 mph - N/A   Clear
8:35 PM 37.4 °F 29.8 °F 17.6 °F 45% 30.40 in 10.0 mi West 11.5 mph - N/A   Clear
8:55 PM 37.4 °F 30.3 °F 19.4 °F 48% 30.40 in 10.0 mi West 10.4 mph - N/A   Clear
9:15 PM 37.4 °F 30.8 °F 17.6 °F 45% 30.41 in 10.0 mi West 9.2 mph - N/A   Clear
9:35 PM 37.4 °F 29.8 °F 17.6 °F 45% 30.41 in 10.0 mi West 11.5 mph - N/A   Clear
9:55 PM 37.4 °F 30.3 °F 14.0 °F 38% 30.41 in 10.0 mi West 10.4 mph - N/A   Clear
10:15 PM 37.4 °F 32.1 °F 14.0 °F 38% 30.42 in 10.0 mi West 6.9 mph - N/A   Clear
10:55 PM 37.4 °F 31.4 °F 15.8 °F 41% 30.41 in 10.0 mi West 8.1 mph - N/A   Clear
11:15 PM 37.4 °F 32.8 °F 15.8 °F 41% 30.41 in 10.0 mi West 5.8 mph - N/A   Clear
11:35 PM 37.4 °F 33.8 °F 17.6 °F 45% 30.41 in 10.0 mi West 4.6 mph - N/A   Clear
11:55 PM 37.4 °F 31.4 °F 15.8 °F 41% 30.41 in 10.0 mi West 8.1 mph - N/A   Clear